Time;durP1;ratioP1;P1;durP2;ratioP2;P2;SDS_P1;SDS_P2;PMS_P1;PMS_P2;Temp;Humidity;BMP_temperature;BMP_pressure;BME280_temperature;BME280_humidity;BME280_pressure;Samples;Min_cycle;Max_cycle;Signal;HPM_P1;HPM_P2
2023/07/30 00:13:07;;;;;;;9.82;7.45;;;;;;;25.87;100.00;99732.13;30866494;28;20496;-74
2023/07/30 00:28:09;;;;;;;8.15;6.78;;;;;;;25.65;100.00;99724.94;30869424;28;20104;-73
2023/07/30 00:43:11;;;;;;;8.98;6.80;;;;;;;25.72;100.00;99720.78;30870523;28;20137;-72
2023/07/30 00:58:15;;;;;;;12.02;8.00;;;;;;;25.56;100.00;99710.66;30866160;28;20134;-72
2023/07/30 01:13:17;;;;;;;10.13;6.85;;;;;;;25.70;100.00;99723.34;30863493;28;20046;-73
2023/07/30 01:28:21;;;;;;;9.00;6.85;;;;;;;25.57;100.00;99723.28;30864014;28;20070;-73
2023/07/30 01:43:23;;;;;;;9.70;6.68;;;;;;;25.21;100.00;99712.50;30864177;28;20078;-72
2023/07/30 01:58:25;;;;;;;11.40;7.18;;;;;;;25.26;100.00;99714.47;30856406;28;20051;-72
2023/07/30 02:13:27;;;;;;;11.20;7.13;;;;;;;24.99;100.00;99721.19;30853696;28;20497;-71
2023/07/30 02:28:29;;;;;;;10.10;7.38;;;;;;;25.03;100.00;99727.94;30868231;28;20086;-73
2023/07/30 02:43:31;;;;;;;8.38;6.90;;;;;;;24.97;100.00;99732.06;30879179;28;20145;-73
2023/07/30 02:58:33;;;;;;;11.50;7.68;;;;;;;25.22;100.00;99727.91;30884727;28;20131;-72
2023/07/30 03:13:35;;;;;;;12.05;7.57;;;;;;;25.55;100.00;99740.47;30879737;28;20088;-71
2023/07/30 03:28:37;;;;;;;14.15;8.60;;;;;;;25.94;100.00;99756.53;30875609;28;21177;-72
2023/07/30 03:43:41;;;;;;;15.77;7.57;;;;;;;26.33;100.00;99774.53;30877095;28;20390;-73
2023/07/30 03:58:43;;;;;;;12.82;8.73;;;;;;;26.87;100.00;99801.78;30873090;28;20470;-72
2023/07/30 04:13:45;;;;;;;12.40;7.00;;;;;;;27.55;100.00;99828.94;30873203;28;20077;-73
2023/07/30 04:28:47;;;;;;;9.90;7.90;;;;;;;28.07;100.00;99834.25;30867637;28;20085;-72
2023/07/30 04:43:49;;;;;;;13.50;8.43;;;;;;;28.68;99.85;99857.00;30874672;28;20055;-73
2023/07/30 04:58:51;;;;;;;13.20;6.90;;;;;;;29.32;97.30;99861.78;30865262;28;20058;-73
2023/07/30 05:13:53;;;;;;;12.93;8.20;;;;;;;29.75;98.30;99871.41;30865624;28;20561;-72
2023/07/30 05:28:55;;;;;;;16.80;7.63;;;;;;;30.31;95.56;99864.72;30862559;28;20050;-72
2023/07/30 05:43:57;;;;;;;;;;;;;;;31.11;87.95;99878.94;30865896;28;20130;-72
2023/07/30 05:58:59;;;;;;;9.38;7.35;;;;;;;31.31;88.45;99879.22;30864082;28;20016;-72
2023/07/30 06:14:01;;;;;;;8.82;7.18;;;;;;;31.96;86.58;99874.34;30858315;28;20082;-74
2023/07/30 06:29:03;;;;;;;8.07;6.55;;;;;;;32.52;83.00;99866.38;30859252;28;20055;-73
2023/07/30 06:44:05;;;;;;;11.55;7.63;;;;;;;32.74;81.09;99868.22;30854359;28;20050;-72
2023/07/30 06:59:07;;;;;;;8.63;6.85;;;;;;;33.64;76.60;99878.16;30852670;28;20050;-73
2023/07/30 07:14:09;;;;;;;8.07;6.10;;;;;;;34.19;71.34;99881.03;30855342;28;20074;-73
2023/07/30 07:29:11;;;;;;;6.63;5.40;;;;;;;34.82;65.82;99862.47;30876377;28;20082;-72
2023/07/30 07:44:13;;;;;;;6.32;4.72;;;;;;;35.02;61.64;99858.28;30875633;28;20050;-74
2023/07/30 07:59:15;;;;;;;5.90;4.43;;;;;;;35.38;61.27;99846.06;30874597;28;20142;-73
2023/07/30 08:14:17;;;;;;;4.22;3.78;;;;;;;35.17;58.62;99837.50;30867019;28;20480;-73
2023/07/30 08:29:22;;;;;;;5.47;3.42;;;;;;;34.90;57.15;99842.56;30864543;28;20050;-73
2023/07/30 08:44:25;;;;;;;4.28;3.25;;;;;;;36.43;52.14;99843.31;30868875;28;20385;-74
2023/07/30 08:59:33;;;;;;;6.05;3.75;;;;;;;37.13;48.71;99823.78;30862483;28;20457;-73
2023/07/30 09:14:35;;;;;;;7.53;5.22;;;;;;;37.43;47.66;99839.88;30864135;28;20857;-73
2023/07/30 09:29:37;;;;;;;4.82;3.30;;;;;;;38.36;45.64;99838.34;30857918;28;20166;-74
2023/07/30 09:44:39;;;;;;;29.00;3.85;;;;;;;38.51;42.20;99834.94;30861179;28;20153;-75
2023/07/30 09:59:41;;;;;;;2.47;2.25;;;;;;;39.01;41.60;99839.19;30854835;28;20579;-74
2023/07/30 10:14:44;;;;;;;2.38;2.05;;;;;;;39.22;39.49;99839.69;30856048;28;20090;-74
2023/07/30 10:29:46;;;;;;;3.08;2.17;;;;;;;39.70;37.97;99840.09;30858245;28;20070;-75
2023/07/30 10:44:49;;;;;;;6.20;2.60;;;;;;;40.18;37.13;99831.25;30854712;28;20145;-73
2023/07/30 10:59:54;;;;;;;3.00;2.70;;;;;;;40.36;37.64;99830.72;30875809;28;20054;-73
2023/07/30 11:15:01;;;;;;;6.37;3.77;;;;;;;40.50;36.76;99826.47;30876507;28;20149;-75
2023/07/30 11:30:03;;;;;;;4.80;3.60;;;;;;;39.31;38.67;99823.84;30875349;28;20496;-74
2023/07/30 11:45:23;;;;;;;5.20;2.63;;;;;;;37.55;40.18;99829.28;30880652;28;20456;-73
2023/07/30 12:00:25;;;;;;;3.55;2.88;;;;;;;36.30;41.55;99813.53;30868899;28;20043;-75
2023/07/30 12:15:29;;;;;;;10.35;6.82;;;;;;;35.66;44.33;99795.75;30874546;28;20047;-76
2023/07/30 12:30:31;;;;;;;10.23;7.85;;;;;;;35.16;45.66;99793.69;30867669;28;20145;-74
2023/07/30 12:45:33;;;;;;;5.18;3.95;;;;;;;34.83;46.39;99782.19;30874479;28;20081;-75
2023/07/30 13:00:35;;;;;;;5.70;3.90;;;;;;;34.45;46.84;99777.31;30863274;28;20595;-74
2023/07/30 13:15:38;;;;;;;8.73;5.95;;;;;;;34.37;46.65;99769.00;30863099;28;20055;-74
2023/07/30 13:30:40;;;;;;;5.80;3.72;;;;;;;34.06;47.27;99760.34;30864103;28;20090;-74
2023/07/30 13:45:42;;;;;;;6.68;4.15;;;;;;;34.01;47.57;99752.22;30858468;28;20058;-75
2023/07/30 14:00:44;;;;;;;5.05;2.90;;;;;;;33.83;48.44;99749.50;30867490;28;20101;-78
2023/07/30 14:15:46;;;;;;;5.32;3.33;;;;;;;33.93;48.67;99746.72;30862671;28;20401;-75
2023/07/30 14:30:48;;;;;;;4.40;2.80;;;;;;;33.64;48.84;99738.19;30854359;28;20055;-77
2023/07/30 14:45:50;;;;;;;4.43;3.65;;;;;;;33.35;48.70;99734.53;30859519;28;20129;-77
2023/07/30 15:00:52;;;;;;;3.30;2.85;;;;;;;33.21;49.26;99734.16;30868208;28;20073;-80
2023/07/30 15:15:54;;;;;;;7.10;3.88;;;;;;;32.84;49.97;99734.13;30863873;28;20074;-78
2023/07/30 15:30:57;;;;;;;5.70;4.18;;;;;;;32.81;50.63;99735.31;30867886;28;20062;-80
2023/07/30 15:46:01;;;;;;;5.53;4.10;;;;;;;32.51;51.24;99736.41;30888464;28;20110;-79
2023/07/30 16:01:05;;;;;;;5.53;3.95;;;;;;;32.61;51.56;99736.47;30882302;28;20564;-77
2023/07/30 16:16:09;;;;;;;14.52;11.88;;;;;;;32.50;52.97;99722.94;30881976;28;20126;-77
2023/07/30 16:31:11;;;;;;;24.63;19.40;;;;;;;32.36;53.80;99727.44;30879439;28;20065;-80
2023/07/30 16:46:13;;;;;;;4.18;3.22;;;;;;;32.03;54.88;99730.38;30876249;28;20054;-77
2023/07/30 17:01:15;;;;;;;4.93;3.97;;;;;;;31.83;55.74;99734.31;30871173;28;20050;-79
2023/07/30 17:16:17;;;;;;;6.50;4.15;;;;;;;31.67;56.13;99741.38;30875676;28;20138;-79
2023/07/30 17:31:19;;;;;;;5.30;3.67;;;;;;;31.25;57.29;99752.53;30873168;28;20051;-79
2023/07/30 17:46:22;;;;;;;7.88;4.60;;;;;;;31.26;57.55;99768.78;30873388;28;20047;-78
2023/07/30 18:01:25;;;;;;;6.05;3.58;;;;;;;31.00;57.74;99772.06;30866031;28;20054;-78
2023/07/30 18:16:27;;;;;;;4.90;3.58;;;;;;;30.80;56.63;99768.25;30867283;28;20117;-78
2023/07/30 18:31:29;;;;;;;7.95;4.78;;;;;;;30.71;56.09;99769.59;30865220;28;20057;-78
2023/07/30 18:46:31;;;;;;;7.18;4.70;;;;;;;30.75;54.72;99774.81;30873357;28;20420;-82
2023/07/30 19:01:34;;;;;;;6.63;4.05;;;;;;;30.75;53.71;99774.81;30869961;28;20085;-78
2023/07/30 19:16:36;;;;;;;6.60;3.80;;;;;;;30.44;54.15;99790.97;30885332;28;20051;-77
2023/07/30 19:31:39;;;;;;;8.27;4.10;;;;;;;30.18;55.41;99792.91;30889172;28;20539;-76
2023/07/30 19:46:41;;;;;;;9.07;4.65;;;;;;;29.96;56.05;99787.31;30885149;28;20074;-78
2023/07/30 20:01:44;;;;;;;6.68;4.30;;;;;;;29.93;55.74;99803.16;30879902;28;20113;-77
2023/07/30 20:16:46;;;;;;;7.00;3.65;;;;;;;29.92;54.42;99803.72;30879386;28;20062;-76
2023/07/30 20:31:48;;;;;;;4.95;3.38;;;;;;;30.05;53.11;99798.69;30878235;28;20050;-78
2023/07/30 20:46:50;;;;;;;;;;;;;;;29.94;51.47;99790.66;30871739;28;20491;-77
2023/07/30 21:01:52;;;;;;;6.20;4.22;;;;;;;29.63;52.93;99791.97;30869037;28;19922;-76
2023/07/30 21:16:54;;;;;;;6.15;4.40;;;;;;;29.41;53.52;99769.00;30865014;28;20121;-76
2023/07/30 21:31:56;;;;;;;7.40;5.63;;;;;;;29.24;54.32;99776.41;30862223;28;20312;-77
2023/07/30 21:46:59;;;;;;;7.93;5.30;;;;;;;29.00;55.75;99763.69;30859385;28;20055;-75
2023/07/30 22:02:01;;;;;;;7.65;5.25;;;;;;;28.41;59.37;99752.44;30859748;28;20456;-75
2023/07/30 22:17:04;;;;;;;;;;;;;;;28.73;58.82;99752.03;30856208;28;20051;-75
2023/07/30 22:32:06;;;;;;;7.57;5.97;;;;;;;28.47;59.74;99753.03;30861021;28;19926;-76
2023/07/30 22:47:08;;;;;;;8.77;5.60;;;;;;;28.06;62.65;99739.94;30875411;28;20489;-77
2023/07/30 23:02:11;;;;;;;8.18;5.63;;;;;;;27.76;66.72;99737.69;30881610;28;20050;-76
2023/07/30 23:17:13;;;;;;;9.40;5.50;;;;;;;27.62;69.36;99747.44;30880615;28;20058;-76
2023/07/30 23:32:15;;;;;;;9.17;5.50;;;;;;;27.61;70.03;99743.16;30883706;28;20142;-77
2023/07/30 23:47:17;;;;;;;8.60;5.93;;;;;;;27.65;72.87;99733.13;30882487;28;20050;-75
